Darton, United Kingdom
Current Conditions -  °F | °C
As of 9:50 PM on Wednesday 28 Jan 2015 (Local Time) from EGNM Reporting Station
Snow Showers Snow Showers  
Wind Chill: 20°   Ceiling: Unl
Heat Index: 32°   Visibility: 4mi
Dew Point: 30°   Wind: 21mph
Humidity: 93%   Direction: 260°W
Pressure: 29.23"   Gusts: NA
Location:  53.59°N, 1.53°W
Report Text: EGNM 282150Z 26018KT 6000 -SHSN FEW008 SCT020CB 00/M01 Q0990
Loading
Personal Weather Stations






























Interactive Weather Map New forecast layout! Learn more

10-Day Weather Forecast

Advertisements
Track Severe Weather on mobile